sensor_id;sensor_type;location;lat;lon;timestamp;pressure;altitude;pressure_sealevel;temperature;humidity
74716;BME280;63234;37.558;127.058;2023-07-30T00:02:00;99664.56;;;19.44;76.19
74716;BME280;63234;37.558;127.058;2023-07-30T00:04:26;99663.59;;;19.35;76.94
74716;BME280;63234;37.558;127.058;2023-07-30T00:06:52;99669.72;;;19.41;77.66
74716;BME280;63234;37.558;127.058;2023-07-30T00:09:21;99670.31;;;19.38;78.97
74716;BME280;63234;37.558;127.058;2023-07-30T00:11:47;99663.47;;;19.45;79.10
74716;BME280;63234;37.558;127.058;2023-07-30T00:14:15;99660.13;;;19.35;79.96
74716;BME280;63234;37.558;127.058;2023-07-30T00:16:41;99673.53;;;19.40;80.22
74716;BME280;63234;37.558;127.058;2023-07-30T00:19:06;99671.06;;;19.43;80.68
74716;BME280;63234;37.558;127.058;2023-07-30T00:21:32;99670.16;;;19.29;81.54
74716;BME280;63234;37.558;127.058;2023-07-30T00:23:58;99664.50;;;19.31;81.89
74716;BME280;63234;37.558;127.058;2023-07-30T00:26:25;99663.19;;;19.28;82.27
74716;BME280;63234;37.558;127.058;2023-07-30T00:28:51;99669.66;;;19.27;82.51
74716;BME280;63234;37.558;127.058;2023-07-30T00:31:17;99665.50;;;19.35;82.79
74716;BME280;63234;37.558;127.058;2023-07-30T00:33:43;99666.66;;;19.29;83.48
74716;BME280;63234;37.558;127.058;2023-07-30T00:36:09;99664.47;;;19.12;85.27
74716;BME280;63234;37.558;127.058;2023-07-30T00:38:35;99666.69;;;19.05;85.63
74716;BME280;63234;37.558;127.058;2023-07-30T00:41:01;99670.28;;;19.00;86.11
74716;BME280;63234;37.558;127.058;2023-07-30T00:43:27;99668.44;;;18.95;86.46
74716;BME280;63234;37.558;127.058;2023-07-30T00:45:53;99672.03;;;19.10;86.28
74716;BME280;63234;37.558;127.058;2023-07-30T00:48:19;99659.13;;;19.07;86.59
74716;BME280;63234;37.558;127.058;2023-07-30T00:50:46;99661.69;;;19.17;86.44
74716;BME280;63234;37.558;127.058;2023-07-30T00:53:14;99666.19;;;19.27;85.75
74716;BME280;63234;37.558;127.058;2023-07-30T00:55:41;99669.66;;;19.27;85.49
74716;BME280;63234;37.558;127.058;2023-07-30T00:58:07;99670.34;;;19.14;86.11
74716;BME280;63234;37.558;127.058;2023-07-30T01:00:35;99662.94;;;19.06;86.89
74716;BME280;63234;37.558;127.058;2023-07-30T01:03:01;99663.59;;;19.16;86.38
74716;BME280;63234;37.558;127.058;2023-07-30T01:05:27;99659.78;;;18.98;87.06
74716;BME280;63234;37.558;127.058;2023-07-30T01:07:53;99667.28;;;19.01;86.88
74716;BME280;63234;37.558;127.058;2023-07-30T01:10:19;99679.28;;;19.14;86.71
74716;BME280;63234;37.558;127.058;2023-07-30T01:12:46;99676.88;;;19.32;85.96
74716;BME280;63234;37.558;127.058;2023-07-30T01:15:13;99688.81;;;19.25;85.71
74716;BME280;63234;37.558;127.058;2023-07-30T01:17:39;99682.94;;;18.99;86.96
74716;BME280;63234;37.558;127.058;2023-07-30T01:20:05;99688.50;;;19.08;86.83
74716;BME280;63234;37.558;127.058;2023-07-30T01:22:31;99695.84;;;19.02;87.08
74716;BME280;63234;37.558;127.058;2023-07-30T01:24:57;99684.94;;;18.89;87.46
74716;BME280;63234;37.558;127.058;2023-07-30T01:27:28;99678.63;;;18.98;87.46
74716;BME280;63234;37.558;127.058;2023-07-30T01:30:13;99683.13;;;19.08;86.41
74716;BME280;63234;37.558;127.058;2023-07-30T01:32:41;99686.09;;;19.07;86.51
74716;BME280;63234;37.558;127.058;2023-07-30T01:35:08;99691.44;;;19.12;85.85
74716;BME280;63234;37.558;127.058;2023-07-30T01:37:35;99684.31;;;19.21;85.82
74716;BME280;63234;37.558;127.058;2023-07-30T01:40:02;99692.28;;;19.07;85.82
74716;BME280;63234;37.558;127.058;2023-07-30T01:42:30;99696.28;;;19.10;85.12
74716;BME280;63234;37.558;127.058;2023-07-30T01:44:56;99699.50;;;19.12;85.03
74716;BME280;63234;37.558;127.058;2023-07-30T01:47:22;99695.50;;;19.09;85.55
74716;BME280;63234;37.558;127.058;2023-07-30T01:49:48;99696.25;;;19.15;85.49
74716;BME280;63234;37.558;127.058;2023-07-30T01:52:15;99704.59;;;19.13;85.38
74716;BME280;63234;37.558;127.058;2023-07-30T01:54:41;99700.53;;;18.92;86.04
74716;BME280;63234;37.558;127.058;2023-07-30T01:57:08;99710.38;;;19.01;85.58
74716;BME280;63234;37.558;127.058;2023-07-30T01:59:33;99712.06;;;18.97;86.50
74716;BME280;63234;37.558;127.058;2023-07-30T02:01:59;99709.53;;;18.82;86.55
74716;BME280;63234;37.558;127.058;2023-07-30T02:04:25;99703.00;;;18.59;87.28
74716;BME280;63234;37.558;127.058;2023-07-30T02:06:51;99697.28;;;18.66;87.50
74716;BME280;63234;37.558;127.058;2023-07-30T02:09:17;99699.63;;;18.48;87.40
74716;BME280;63234;37.558;127.058;2023-07-30T02:11:43;99700.44;;;18.44;87.86
74716;BME280;63234;37.558;127.058;2023-07-30T02:14:09;99696.25;;;18.32;88.38
74716;BME280;63234;37.558;127.058;2023-07-30T02:16:36;99696.50;;;18.36;88.35
74716;BME280;63234;37.558;127.058;2023-07-30T02:19:03;99695.47;;;18.32;88.71
74716;BME280;63234;37.558;127.058;2023-07-30T02:21:29;99686.25;;;18.38;88.32
74716;BME280;63234;37.558;127.058;2023-07-30T02:23:59;99688.78;;;18.24;88.46
74716;BME280;63234;37.558;127.058;2023-07-30T02:26:25;99684.16;;;18.30;88.04
74716;BME280;63234;37.558;127.058;2023-07-30T02:28:51;99674.44;;;18.34;87.73
74716;BME280;63234;37.558;127.058;2023-07-30T02:31:17;99675.53;;;18.33;87.57
74716;BME280;63234;37.558;127.058;2023-07-30T02:33:43;99670.72;;;18.30;86.93
74716;BME280;63234;37.558;127.058;2023-07-30T02:36:09;99673.09;;;18.31;86.38
74716;BME280;63234;37.558;127.058;2023-07-30T02:38:35;99680.94;;;18.28;86.23
74716;BME280;63234;37.558;127.058;2023-07-30T02:41:01;99676.31;;;18.33;86.41
74716;BME280;63234;37.558;127.058;2023-07-30T02:43:27;99679.13;;;18.23;86.15
74716;BME280;63234;37.558;127.058;2023-07-30T02:45:53;99681.47;;;18.30;86.13
74716;BME280;63234;37.558;127.058;2023-07-30T02:48:19;99694.13;;;18.29;85.99
74716;BME280;63234;37.558;127.058;2023-07-30T02:50:44;99687.66;;;18.30;86.24
74716;BME280;63234;37.558;127.058;2023-07-30T02:53:10;99689.81;;;18.28;86.26
74716;BME280;63234;37.558;127.058;2023-07-30T02:55:36;99691.50;;;18.19;86.58
74716;BME280;63234;37.558;127.058;2023-07-30T02:58:02;99698.25;;;18.17;86.37
74716;BME280;63234;37.558;127.058;2023-07-30T03:00:28;99691.31;;;18.10;87.16
74716;BME280;63234;37.558;127.058;2023-07-30T03:02:54;99697.19;;;18.18;87.31
74716;BME280;63234;37.558;127.058;2023-07-30T03:05:20;99703.72;;;18.06;87.61
74716;BME280;63234;37.558;127.058;2023-07-30T03:07:46;99702.59;;;18.13;87.53
74716;BME280;63234;37.558;127.058;2023-07-30T03:10:12;99698.81;;;18.14;87.74
74716;BME280;63234;37.558;127.058;2023-07-30T03:12:38;99707.53;;;18.05;88.14
74716;BME280;63234;37.558;127.058;2023-07-30T03:15:04;99709.13;;;18.01;88.63
74716;BME280;63234;37.558;127.058;2023-07-30T03:17:30;99709.13;;;18.06;88.64
74716;BME280;63234;37.558;127.058;2023-07-30T03:19:56;99710.81;;;17.92;89.08
74716;BME280;63234;37.558;127.058;2023-07-30T03:22:22;99718.31;;;18.00;88.90
74716;BME280;63234;37.558;127.058;2023-07-30T03:24:49;99715.91;;;17.99;89.41
74716;BME280;63234;37.558;127.058;2023-07-30T03:27:15;99724.25;;;17.97;89.51
74716;BME280;63234;37.558;127.058;2023-07-30T03:29:41;99724.56;;;17.91;90.29
74716;BME280;63234;37.558;127.058;2023-07-30T03:32:07;99716.25;;;17.87;90.67
74716;BME280;63234;37.558;127.058;2023-07-30T03:34:33;99720.63;;;17.78;91.24
74716;BME280;63234;37.558;127.058;2023-07-30T03:36:59;99711.38;;;17.89;91.39
74716;BME280;63234;37.558;127.058;2023-07-30T03:39:26;99707.16;;;17.78;91.54
74716;BME280;63234;37.558;127.058;2023-07-30T03:41:52;99710.09;;;17.81;91.72
74716;BME280;63234;37.558;127.058;2023-07-30T03:44:18;99716.00;;;17.83;91.74
74716;BME280;63234;37.558;127.058;2023-07-30T03:46:44;99713.59;;;17.82;91.81
74716;BME280;63234;37.558;127.058;2023-07-30T03:49:10;99718.94;;;17.87;91.68
74716;BME280;63234;37.558;127.058;2023-07-30T03:51:36;99724.09;;;17.83;91.67
74716;BME280;63234;37.558;127.058;2023-07-30T03:54:03;99722.22;;;17.79;91.69
74716;BME280;63234;37.558;127.058;2023-07-30T03:56:29;99725.59;;;17.95;91.25
74716;BME280;63234;37.558;127.058;2023-07-30T03:58:57;99732.28;;;18.02;90.94
74716;BME280;63234;37.558;127.058;2023-07-30T04:01:23;99734.97;;;18.02;90.46
74716;BME280;63234;37.558;127.058;2023-07-30T04:03:49;99733.31;;;18.06;90.23
74716;BME280;63234;37.558;127.058;2023-07-30T04:06:15;99729.31;;;18.04;90.75
74716;BME280;63234;37.558;127.058;2023-07-30T04:08:42;99724.66;;;18.15;90.18
74716;BME280;63234;37.558;127.058;2023-07-30T04:11:07;99723.38;;;18.07;89.99
74716;BME280;63234;37.558;127.058;2023-07-30T04:13:34;99719.00;;;18.16;89.85
74716;BME280;63234;37.558;127.058;2023-07-30T04:16:00;99714.66;;;18.20;89.81
74716;BME280;63234;37.558;127.058;2023-07-30T04:18:26;99726.50;;;18.19;89.46
74716;BME280;63234;37.558;127.058;2023-07-30T04:20:54;99737.06;;;18.10;90.03
74716;BME280;63234;37.558;127.058;2023-07-30T04:23:21;99737.09;;;18.05;90.12
74716;BME280;63234;37.558;127.058;2023-07-30T04:25:49;99736.00;;;18.11;90.03
74716;BME280;63234;37.558;127.058;2023-07-30T04:28:16;99731.50;;;18.02;90.14
74716;BME280;63234;37.558;127.058;2023-07-30T04:30:42;99739.75;;;18.10;90.20
74716;BME280;63234;37.558;127.058;2023-07-30T04:33:08;99733.81;;;18.14;89.88
74716;BME280;63234;37.558;127.058;2023-07-30T04:35:34;99736.50;;;18.14;89.79
74716;BME280;63234;37.558;127.058;2023-07-30T04:38:00;99745.06;;;18.21;89.45
74716;BME280;63234;37.558;127.058;2023-07-30T04:40:26;99742.31;;;18.26;88.89
74716;BME280;63234;37.558;127.058;2023-07-30T04:42:52;99742.31;;;18.26;88.80
74716;BME280;63234;37.558;127.058;2023-07-30T04:45:18;99744.97;;;18.31;88.49
74716;BME280;63234;37.558;127.058;2023-07-30T04:47:56;99757.09;;;18.28;88.44
74716;BME280;63234;37.558;127.058;2023-07-30T04:50:22;99761.13;;;18.31;88.51
74716;BME280;63234;37.558;127.058;2023-07-30T04:52:48;99763.56;;;18.32;89.00
74716;BME280;63234;37.558;127.058;2023-07-30T04:55:33;99758.41;;;18.36;88.89
74716;BME280;63234;37.558;127.058;2023-07-30T04:57:59;99757.84;;;18.39;89.00
74716;BME280;63234;37.558;127.058;2023-07-30T05:00:25;99762.63;;;18.47;88.97
74716;BME280;63234;37.558;127.058;2023-07-30T05:02:51;99762.38;;;18.44;88.92
74716;BME280;63234;37.558;127.058;2023-07-30T05:05:16;99775.13;;;18.62;88.15
74716;BME280;63234;37.558;127.058;2023-07-30T05:07:44;99772.00;;;18.50;88.39
74716;BME280;63234;37.558;127.058;2023-07-30T05:10:11;99783.09;;;18.43;88.56
74716;BME280;63234;37.558;127.058;2023-07-30T05:12:37;99785.31;;;18.36;88.94
74716;BME280;63234;37.558;127.058;2023-07-30T05:15:03;99773.31;;;18.23;89.66
74716;BME280;63234;37.558;127.058;2023-07-30T05:17:29;99785.53;;;18.05;90.94
74716;BME280;63234;37.558;127.058;2023-07-30T05:19:55;99784.22;;;17.98;91.74
74716;BME280;63234;37.558;127.058;2023-07-30T05:22:21;99789.84;;;18.01;91.74
74716;BME280;63234;37.558;127.058;2023-07-30T05:24:47;99786.09;;;18.02;92.18
74716;BME280;63234;37.558;127.058;2023-07-30T05:27:13;99785.47;;;18.10;91.61
74716;BME280;63234;37.558;127.058;2023-07-30T05:29:39;99787.44;;;18.05;91.96
74716;BME280;63234;37.558;127.058;2023-07-30T05:32:05;99794.63;;;18.15;91.69
74716;BME280;63234;37.558;127.058;2023-07-30T05:34:32;99791.50;;;17.92;92.70
74716;BME280;63234;37.558;127.058;2023-07-30T05:36:57;99794.94;;;18.08;92.58
74716;BME280;63234;37.558;127.058;2023-07-30T05:39:23;99788.22;;;18.05;92.37
74716;BME280;63234;37.558;127.058;2023-07-30T05:41:49;99793.94;;;17.99;92.63
74716;BME280;63234;37.558;127.058;2023-07-30T05:44:15;99797.91;;;18.06;92.09
74716;BME280;63234;37.558;127.058;2023-07-30T05:46:41;99809.47;;;18.07;91.64
74716;BME280;63234;37.558;127.058;2023-07-30T05:49:07;99803.06;;;17.98;91.88
74716;BME280;63234;37.558;127.058;2023-07-30T05:51:33;99795.22;;;18.01;91.82
74716;BME280;63234;37.558;127.058;2023-07-30T05:53:59;99794.50;;;17.91;91.91
74716;BME280;63234;37.558;127.058;2023-07-30T05:56:25;99784.53;;;17.96;91.63
74716;BME280;63234;37.558;127.058;2023-07-30T05:58:51;99796.56;;;18.04;91.50
74716;BME280;63234;37.558;127.058;2023-07-30T06:01:17;99804.06;;;18.07;91.30
74716;BME280;63234;37.558;127.058;2023-07-30T06:03:43;99810.31;;;18.02;91.39
74716;BME280;63234;37.558;127.058;2023-07-30T06:06:08;99798.22;;;18.00;91.87
74716;BME280;63234;37.558;127.058;2023-07-30T06:08:34;99818.59;;;18.11;91.77
74716;BME280;63234;37.558;127.058;2023-07-30T06:11:04;99827.44;;;18.17;91.19
74716;BME280;63234;37.558;127.058;2023-07-30T06:13:30;99835.78;;;18.20;91.23
74716;BME280;63234;37.558;127.058;2023-07-30T06:15:56;99838.75;;;18.14;91.39
74716;BME280;63234;37.558;127.058;2023-07-30T06:18:22;99829.59;;;18.15;91.30
74716;BME280;63234;37.558;127.058;2023-07-30T06:20:48;99842.41;;;18.33;90.96
74716;BME280;63234;37.558;127.058;2023-07-30T06:23:14;99842.94;;;18.35;90.64
74716;BME280;63234;37.558;127.058;2023-07-30T06:25:40;99844.53;;;18.36;90.54
74716;BME280;63234;37.558;127.058;2023-07-30T06:28:06;99842.69;;;18.31;90.64
74716;BME280;63234;37.558;127.058;2023-07-30T06:30:32;99848.81;;;18.42;90.39
74716;BME280;63234;37.558;127.058;2023-07-30T06:32:58;99840.50;;;18.39;89.92
74716;BME280;63234;37.558;127.058;2023-07-30T06:35:24;99842.44;;;18.28;90.20
74716;BME280;63234;37.558;127.058;2023-07-30T06:37:50;99846.56;;;18.54;89.72
74716;BME280;63234;37.558;127.058;2023-07-30T06:40:16;99848.72;;;18.52;89.32
74716;BME280;63234;37.558;127.058;2023-07-30T06:42:42;99854.63;;;18.60;88.59
74716;BME280;63234;37.558;127.058;2023-07-30T06:45:08;99849.53;;;18.53;88.54
74716;BME280;63234;37.558;127.058;2023-07-30T06:47:34;99851.31;;;18.73;88.02
74716;BME280;63234;37.558;127.058;2023-07-30T06:50:00;99854.00;;;18.68;88.39
74716;BME280;63234;37.558;127.058;2023-07-30T06:52:26;99851.38;;;18.57;88.32
74716;BME280;63234;37.558;127.058;2023-07-30T06:55:29;99863.44;;;18.65;88.86
74716;BME280;63234;37.558;127.058;2023-07-30T06:57:55;99863.97;;;18.67;88.73
74716;BME280;63234;37.558;127.058;2023-07-30T07:00:21;99863.63;;;18.79;88.12
74716;BME280;63234;37.558;127.058;2023-07-30T07:02:48;99865.09;;;18.61;87.78
74716;BME280;63234;37.558;127.058;2023-07-30T07:05:14;99866.41;;;18.69;87.79
74716;BME280;63234;37.558;127.058;2023-07-30T07:07:40;99866.63;;;18.72;87.89
74716;BME280;63234;37.558;127.058;2023-07-30T07:10:06;99868.25;;;18.73;87.80
74716;BME280;63234;37.558;127.058;2023-07-30T07:12:32;99868.22;;;18.78;87.77
74716;BME280;63234;37.558;127.058;2023-07-30T07:14:58;99870.00;;;18.93;87.14
74716;BME280;63234;37.558;127.058;2023-07-30T07:17:27;99870.69;;;19.04;86.61
74716;BME280;63234;37.558;127.058;2023-07-30T07:19:53;99874.00;;;18.96;85.37
74716;BME280;63234;37.558;127.058;2023-07-30T07:22:19;99883.38;;;19.03;85.99
74716;BME280;63234;37.558;127.058;2023-07-30T07:24:45;99883.09;;;19.05;84.43
74716;BME280;63234;37.558;127.058;2023-07-30T07:27:11;99884.94;;;19.10;84.43
74716;BME280;63234;37.558;127.058;2023-07-30T07:29:37;99877.31;;;19.17;83.62
74716;BME280;63234;37.558;127.058;2023-07-30T07:32:03;99890.19;;;19.25;83.27
74716;BME280;63234;37.558;127.058;2023-07-30T07:34:29;99892.25;;;19.33;82.47
74716;BME280;63234;37.558;127.058;2023-07-30T07:36:55;99893.09;;;19.29;81.89
74716;BME280;63234;37.558;127.058;2023-07-30T07:39:21;99894.66;;;19.35;81.10
74716;BME280;63234;37.558;127.058;2023-07-30T07:41:47;99893.63;;;19.31;81.08
74716;BME280;63234;37.558;127.058;2023-07-30T07:44:13;99887.78;;;19.23;79.67
74716;BME280;63234;37.558;127.058;2023-07-30T07:46:39;99890.72;;;19.27;77.85
74716;BME280;63234;37.558;127.058;2023-07-30T07:49:05;99896.31;;;19.31;76.80
74716;BME280;63234;37.558;127.058;2023-07-30T07:51:31;99884.75;;;19.30;76.34
74716;BME280;63234;37.558;127.058;2023-07-30T07:53:57;99892.66;;;19.21;75.37
74716;BME280;63234;37.558;127.058;2023-07-30T09:28:20;99964.47;;;20.19;63.72
74716;BME280;63234;37.558;127.058;2023-07-30T09:30:49;99968.34;;;20.31;63.11
74716;BME280;63234;37.558;127.058;2023-07-30T09:33:18;99969.88;;;20.37;62.85
74716;BME280;63234;37.558;127.058;2023-07-30T09:35:45;99975.22;;;20.43;61.28
74716;BME280;63234;37.558;127.058;2023-07-30T09:38:11;99971.78;;;20.37;61.11
74716;BME280;63234;37.558;127.058;2023-07-30T09:40:37;99962.13;;;20.12;62.11
74716;BME280;63234;37.558;127.058;2023-07-30T09:43:04;99967.06;;;20.24;61.25
74716;BME280;63234;37.558;127.058;2023-07-30T09:45:35;99964.31;;;20.53;60.40
74716;BME280;63234;37.558;127.058;2023-07-30T09:48:03;99968.91;;;20.90;59.99
74716;BME280;63234;37.558;127.058;2023-07-30T09:50:31;99956.97;;;21.10;59.06
74716;BME280;63234;37.558;127.058;2023-07-30T09:53:03;99970.25;;;21.25;58.70
74716;BME280;63234;37.558;127.058;2023-07-30T09:55:30;99967.72;;;21.15;58.46
74716;BME280;63234;37.558;127.058;2023-07-30T09:57:56;99983.72;;;20.93;59.38
74716;BME280;63234;37.558;127.058;2023-07-30T10:00:23;99976.34;;;20.98;59.87
74716;BME280;63234;37.558;127.058;2023-07-30T10:02:50;99983.88;;;21.01;58.52
74716;BME280;63234;37.558;127.058;2023-07-30T10:05:20;99983.00;;;21.06;59.66
74716;BME280;63234;37.558;127.058;2023-07-30T10:10:18;99987.53;;;20.92;58.86
74716;BME280;63234;37.558;127.058;2023-07-30T10:12:46;99987.59;;;21.05;58.05
74716;BME280;63234;37.558;127.058;2023-07-30T10:15:13;99990.00;;;21.07;58.25
74716;BME280;63234;37.558;127.058;2023-07-30T10:17:39;99989.59;;;21.00;59.23
74716;BME280;63234;37.558;127.058;2023-07-30T10:20:21;99978.31;;;20.93;60.36
74716;BME280;63234;37.558;127.058;2023-07-30T10:22:51;99990.69;;;20.80;60.19
74716;BME280;63234;37.558;127.058;2023-07-30T10:25:21;99977.59;;;20.68;59.79
74716;BME280;63234;37.558;127.058;2023-07-30T10:27:50;99970.09;;;20.65;59.77
74716;BME280;63234;37.558;127.058;2023-07-30T10:30:18;99974.38;;;20.66;60.03
74716;BME280;63234;37.558;127.058;2023-07-30T10:35:44;99985.44;;;20.46;62.79
74716;BME280;63234;37.558;127.058;2023-07-30T10:38:29;99986.50;;;20.26;63.08
74716;BME280;63234;37.558;127.058;2023-07-30T10:41:06;99992.88;;;20.35;62.37
74716;BME280;63234;37.558;127.058;2023-07-30T10:43:35;100008.31;;;20.29;62.84
74716;BME280;63234;37.558;127.058;2023-07-30T10:46:02;100006.19;;;20.26;62.67
74716;BME280;63234;37.558;127.058;2023-07-30T10:48:40;100003.63;;;20.40;62.53
74716;BME280;63234;37.558;127.058;2023-07-30T10:51:11;100006.69;;;20.33;61.61
74716;BME280;63234;37.558;127.058;2023-07-30T10:53:37;100007.56;;;20.48;60.86
74716;BME280;63234;37.558;127.058;2023-07-30T10:56:06;100011.41;;;20.42;60.98
74716;BME280;63234;37.558;127.058;2023-07-30T10:58:35;100010.53;;;20.89;59.59
74716;BME280;63234;37.558;127.058;2023-07-30T11:01:06;100017.50;;;20.76;59.68
74716;BME280;63234;37.558;127.058;2023-07-30T11:03:33;100016.69;;;20.76;58.92
74716;BME280;63234;37.558;127.058;2023-07-30T11:06:01;100004.09;;;20.66;58.98
74716;BME280;63234;37.558;127.058;2023-07-30T11:08:38;100007.28;;;20.49;59.57
74716;BME280;63234;37.558;127.058;2023-07-30T11:11:07;100018.44;;;20.43;60.06
74716;BME280;63234;37.558;127.058;2023-07-30T11:13:41;100013.53;;;20.45;59.24
74716;BME280;63234;37.558;127.058;2023-07-30T11:16:07;100026.16;;;20.54;58.91
74716;BME280;63234;37.558;127.058;2023-07-30T11:18:34;100012.56;;;20.59;58.85
74716;BME280;63234;37.558;127.058;2023-07-30T11:21:19;100021.84;;;20.72;58.70
74716;BME280;63234;37.558;127.058;2023-07-30T11:23:46;100022.22;;;20.66;57.71
74716;BME280;63234;37.558;127.058;2023-07-30T11:26:17;100017.56;;;20.71;58.02
74716;BME280;63234;37.558;127.058;2023-07-30T11:28:44;100030.31;;;20.66;57.34
74716;BME280;63234;37.558;127.058;2023-07-30T11:31:16;100030.16;;;20.57;57.54
74716;BME280;63234;37.558;127.058;2023-07-30T11:33:46;100026.28;;;20.63;58.01
74716;BME280;63234;37.558;127.058;2023-07-30T11:36:21;100018.28;;;20.58;56.37
74716;BME280;63234;37.558;127.058;2023-07-30T11:38:49;100027.53;;;20.52;56.34
74716;BME280;63234;37.558;127.058;2023-07-30T11:41:15;100030.91;;;20.38;56.39
74716;BME280;63234;37.558;127.058;2023-07-30T11:43:43;100034.66;;;20.43;55.44
74716;BME280;63234;37.558;127.058;2023-07-30T11:48:45;100037.19;;;20.34;55.07
74716;BME280;63234;37.558;127.058;2023-07-30T11:51:25;100030.97;;;20.57;55.14
74716;BME280;63234;37.558;127.058;2023-07-30T11:53:56;100028.72;;;20.83;54.84
74716;BME280;63234;37.558;127.058;2023-07-30T11:56:30;100028.81;;;21.16;54.07
74716;BME280;63234;37.558;127.058;2023-07-30T11:59:01;100042.19;;;21.59;54.24
74716;BME280;63234;37.558;127.058;2023-07-30T12:01:32;100021.66;;;21.58;52.38
74716;BME280;63234;37.558;127.058;2023-07-30T12:04:04;100031.25;;;21.50;52.86
74716;BME280;63234;37.558;127.058;2023-07-30T12:06:51;100033.81;;;21.74;51.14
74716;BME280;63234;37.558;127.058;2023-07-30T12:09:21;100041.94;;;21.74;52.02
74716;BME280;63234;37.558;127.058;2023-07-30T12:11:58;100027.53;;;21.79;51.01
74716;BME280;63234;37.558;127.058;2023-07-30T12:14:27;100035.34;;;21.81;50.96
74716;BME280;63234;37.558;127.058;2023-07-30T12:16:57;100029.47;;;21.60;51.70
74716;BME280;63234;37.558;127.058;2023-07-30T12:19:23;100031.97;;;21.56;52.07
74716;BME280;63234;37.558;127.058;2023-07-30T12:21:49;100031.78;;;21.66;52.16
74716;BME280;63234;37.558;127.058;2023-07-30T12:24:15;100043.66;;;21.51;52.38
74716;BME280;63234;37.558;127.058;2023-07-30T12:26:41;100046.63;;;21.55;52.99
74716;BME280;63234;37.558;127.058;2023-07-30T12:29:08;100043.31;;;21.58;52.87
74716;BME280;63234;37.558;127.058;2023-07-30T12:31:34;100048.34;;;21.79;52.39
74716;BME280;63234;37.558;127.058;2023-07-30T12:34:00;100037.16;;;21.85;51.03
74716;BME280;63234;37.558;127.058;2023-07-30T12:36:26;100048.78;;;21.86;51.24
74716;BME280;63234;37.558;127.058;2023-07-30T12:38:53;100059.19;;;21.79;51.34
74716;BME280;63234;37.558;127.058;2023-07-30T12:41:20;100054.84;;;21.64;50.83
74716;BME280;63234;37.558;127.058;2023-07-30T12:43:55;100049.66;;;21.67;49.96
74716;BME280;63234;37.558;127.058;2023-07-30T12:46:26;100063.59;;;21.74;50.27
74716;BME280;63234;37.558;127.058;2023-07-30T12:48:56;100062.59;;;21.84;50.10
74716;BME280;63234;37.558;127.058;2023-07-30T12:51:22;100072.09;;;21.68;48.87
74716;BME280;63234;37.558;127.058;2023-07-30T12:53:48;100074.94;;;21.58;49.29
74716;BME280;63234;37.558;127.058;2023-07-30T12:56:15;100066.75;;;21.63;49.31
74716;BME280;63234;37.558;127.058;2023-07-30T12:58:41;100071.44;;;21.76;48.26
74716;BME280;63234;37.558;127.058;2023-07-30T13:01:07;100070.00;;;21.79;48.37
74716;BME280;63234;37.558;127.058;2023-07-30T13:03:34;100084.66;;;21.77;47.73
74716;BME280;63234;37.558;127.058;2023-07-30T13:06:01;100071.75;;;21.56;47.50
74716;BME280;63234;37.558;127.058;2023-07-30T13:08:27;100083.00;;;21.63;47.55
74716;BME280;63234;37.558;127.058;2023-07-30T13:10:53;100086.94;;;21.70;47.06
74716;BME280;63234;37.558;127.058;2023-07-30T13:13:19;100094.69;;;21.91;47.01
74716;BME280;63234;37.558;127.058;2023-07-30T13:15:46;100097.06;;;21.79;46.99
74716;BME280;63234;37.558;127.058;2023-07-30T13:18:12;100092.75;;;22.10;47.14
74716;BME280;63234;37.558;127.058;2023-07-30T13:20:38;100102.22;;;21.94;46.79
74716;BME280;63234;37.558;127.058;2023-07-30T13:23:04;100100.88;;;21.77;47.46
74716;BME280;63234;37.558;127.058;2023-07-30T13:25:31;100098.69;;;21.80;47.71
74716;BME280;63234;37.558;127.058;2023-07-30T13:27:57;100097.00;;;21.84;47.12
74716;BME280;63234;37.558;127.058;2023-07-30T13:30:23;100096.41;;;22.19;46.45
74716;BME280;63234;37.558;127.058;2023-07-30T13:32:49;100105.25;;;22.06;45.82
74716;BME280;63234;37.558;127.058;2023-07-30T13:35:15;100091.50;;;22.03;45.68
74716;BME280;63234;37.558;127.058;2023-07-30T13:37:41;100095.34;;;22.15;45.05
74716;BME280;63234;37.558;127.058;2023-07-30T13:40:09;100088.75;;;22.21;44.03
74716;BME280;63234;37.558;127.058;2023-07-30T13:42:56;100095.03;;;22.03;45.00
74716;BME280;63234;37.558;127.058;2023-07-30T13:45:22;100091.59;;;22.16;44.64
74716;BME280;63234;37.558;127.058;2023-07-30T13:47:48;100090.84;;;22.11;44.03
74716;BME280;63234;37.558;127.058;2023-07-30T13:50:14;100085.47;;;22.25;44.37
74716;BME280;63234;37.558;127.058;2023-07-30T13:52:41;100095.66;;;22.14;43.41
74716;BME280;63234;37.558;127.058;2023-07-30T13:55:07;100092.31;;;22.03;43.67
74716;BME280;63234;37.558;127.058;2023-07-30T13:57:33;100108.75;;;21.93;43.98
74716;BME280;63234;37.558;127.058;2023-07-30T14:00:00;100102.97;;;21.67;43.27
74716;BME280;63234;37.558;127.058;2023-07-30T14:02:26;100116.59;;;21.94;43.52
74716;BME280;63234;37.558;127.058;2023-07-30T14:04:53;100106.44;;;22.00;43.46
74716;BME280;63234;37.558;127.058;2023-07-30T14:07:19;100110.97;;;22.05;42.82
74716;BME280;63234;37.558;127.058;2023-07-30T14:09:45;100103.25;;;22.31;43.09
74716;BME280;63234;37.558;127.058;2023-07-30T14:12:12;100105.59;;;22.18;42.82
74716;BME280;63234;37.558;127.058;2023-07-30T14:14:38;100103.72;;;22.33;43.58
74716;BME280;63234;37.558;127.058;2023-07-30T14:17:04;100102.03;;;22.37;42.56
74716;BME280;63234;37.558;127.058;2023-07-30T14:19:33;100105.22;;;22.39;42.94